createdAt,value
2023-04-30T00:00:14.291Z,101502.56
2023-04-30T00:02:42.241Z,101500.03
2023-04-30T00:05:10.659Z,101500.94
2023-04-30T00:07:42.267Z,101506.09
2023-04-30T00:10:11.260Z,101497.56
2023-04-30T00:12:40.426Z,101507.09
2023-04-30T00:15:09.006Z,101517.50
2023-04-30T00:17:36.785Z,101508.09
2023-04-30T00:20:05.225Z,101509.03
2023-04-30T00:22:33.713Z,101510.81
2023-04-30T00:25:01.450Z,101519.44
2023-04-30T00:27:29.300Z,101520.38
2023-04-30T00:29:58.427Z,101513.56
2023-04-30T00:32:26.267Z,101515.38
2023-04-30T00:34:54.066Z,101514.50
2023-04-30T00:37:21.867Z,101512.81
2023-04-30T00:39:49.648Z,101517.09
2023-04-30T00:42:17.440Z,101502.41
2023-04-30T00:44:45.238Z,101511.88
2023-04-30T00:47:14.378Z,101510.97
2023-04-30T00:49:44.560Z,101516.16
2023-04-30T00:52:13.499Z,101512.75
2023-04-30T00:54:41.659Z,101519.69
2023-04-30T00:57:11.678Z,101511.91
2023-04-30T00:59:40.141Z,101520.59
2023-04-30T01:02:07.971Z,101510.31
2023-04-30T01:04:37.266Z,101507.75
2023-04-30T01:07:04.854Z,101509.63
2023-04-30T01:09:32.844Z,101509.56
2023-04-30T01:12:06.140Z,101507.03
2023-04-30T01:14:42.459Z,101498.44
2023-04-30T01:17:14.596Z,101501.06
2023-04-30T01:19:44.876Z,101502.84
2023-04-30T01:22:20.272Z,101508.06
2023-04-30T01:25:00.956Z,101514.13
2023-04-30T01:27:33.944Z,101510.75
2023-04-30T01:30:03.357Z,101510.75
2023-04-30T01:32:31.194Z,101508.22
2023-04-30T01:34:59.729Z,101511.69
2023-04-30T01:37:34.126Z,101505.78
2023-04-30T01:40:18.394Z,101509.41
2023-04-30T01:42:53.312Z,101514.56
2023-04-30T01:45:34.172Z,101509.44
2023-04-30T01:48:08.730Z,101506.06
2023-04-30T01:50:44.093Z,101514.75
2023-04-30T01:53:15.432Z,101504.47
2023-04-30T01:55:45.324Z,101510.56
2023-04-30T01:58:14.805Z,101508.91
2023-04-30T02:00:44.007Z,101524.47
2023-04-30T02:03:11.836Z,101520.22
2023-04-30T02:05:39.667Z,101524.59
2023-04-30T02:08:08.109Z,101528.13
2023-04-30T02:10:35.852Z,101523.91
2023-04-30T02:13:03.614Z,101526.53
2023-04-30T02:15:31.359Z,101529.97
2023-04-30T02:18:00.556Z,101528.31
2023-04-30T02:20:28.193Z,101531.03
2023-04-30T02:22:55.919Z,101531.91
2023-04-30T02:25:23.693Z,101529.38
2023-04-30T02:27:51.651Z,101529.41
2023-04-30T02:30:20.917Z,101536.38
2023-04-30T02:32:49.040Z,101536.53
2023-04-30T02:35:18.424Z,101533.91
2023-04-30T02:37:48.895Z,101530.53
2023-04-30T02:40:16.859Z,101526.22
2023-04-30T02:42:44.633Z,101519.34
2023-04-30T02:45:12.575Z,101533.16
2023-04-30T02:47:40.453Z,101522.00
2023-04-30T02:50:09.699Z,101522.09
2023-04-30T02:52:38.703Z,101523.94
2023-04-30T02:55:07.317Z,101520.53
2023-04-30T02:57:35.074Z,101514.59
2023-04-30T03:00:02.850Z,101512.00
2023-04-30T03:02:30.946Z,101512.03
2023-04-30T03:04:58.993Z,101508.59
2023-04-30T03:07:26.738Z,101513.75
2023-04-30T03:09:56.149Z,101511.16
2023-04-30T03:12:24.083Z,101501.72
2023-04-30T03:14:52.262Z,101503.41
2023-04-30T03:17:20.140Z,101505.91
2023-04-30T03:19:47.930Z,101504.19
2023-04-30T03:22:15.686Z,101501.56
2023-04-30T03:24:43.434Z,101503.28
2023-04-30T03:27:12.537Z,101505.03
2023-04-30T03:29:40.412Z,101514.50
2023-04-30T03:32:08.128Z,101519.66
2023-04-30T03:34:35.966Z,101518.00
2023-04-30T03:37:03.894Z,101519.78
2023-04-30T03:39:31.727Z,101518.06
2023-04-30T03:41:59.484Z,101521.53
2023-04-30T03:44:28.662Z,101509.53
2023-04-30T03:46:56.428Z,101511.31
2023-04-30T03:49:24.162Z,101507.06
2023-04-30T03:51:51.974Z,101520.91
2023-04-30T03:54:19.770Z,101526.94
2023-04-30T03:56:47.531Z,101526.97
2023-04-30T03:59:15.355Z,101533.88
2023-04-30T04:01:44.478Z,101534.75
2023-04-30T04:04:12.406Z,101541.66
2023-04-30T04:06:40.262Z,101527.88
2023-04-30T04:09:08.108Z,101529.63
2023-04-30T04:11:35.904Z,101528.75
2023-04-30T04:14:03.655Z,101521.84
2023-04-30T04:16:31.515Z,101521.00
2023-04-30T04:19:01.052Z,101519.25
2023-04-30T04:21:28.948Z,101519.22
2023-04-30T04:23:56.800Z,101519.19
2023-04-30T04:26:25.763Z,101507.97
2023-04-30T04:28:53.501Z,101519.16
2023-04-30T04:31:22.686Z,101514.84
2023-04-30T04:33:50.520Z,101522.53
2023-04-30T04:36:19.671Z,101526.78
2023-04-30T04:38:47.951Z,101513.94
2023-04-30T04:41:15.779Z,101527.59
2023-04-30T04:43:43.727Z,101529.25
2023-04-30T04:46:13.753Z,101527.47
2023-04-30T04:48:42.393Z,101533.44
2023-04-30T04:51:11.132Z,101532.53
2023-04-30T04:53:40.328Z,101540.19
2023-04-30T04:56:09.008Z,101541.84
2023-04-30T04:58:36.949Z,101544.31
2023-04-30T05:01:06.023Z,101543.34
2023-04-30T05:03:34.456Z,101543.31
2023-04-30T05:06:02.313Z,101542.31
2023-04-30T05:08:30.162Z,101533.56
2023-04-30T05:10:59.342Z,101539.47
2023-04-30T05:13:27.213Z,101547.09
2023-04-30T05:15:55.470Z,101551.19
2023-04-30T05:18:23.350Z,101548.38
2023-04-30T05:20:51.163Z,101539.56
2023-04-30T05:23:18.937Z,101542.00
2023-04-30T05:25:46.675Z,101534.91
2023-04-30T05:28:15.823Z,101545.91
2023-04-30T05:30:43.636Z,101553.44
2023-04-30T05:33:11.736Z,101547.34
2023-04-30T05:35:39.665Z,101537.75
2023-04-30T05:38:07.463Z,101542.00
2023-04-30T05:40:35.236Z,101550.41
2023-04-30T05:43:02.975Z,101552.00
2023-04-30T05:45:32.146Z,101549.00
2023-04-30T05:48:02.012Z,101547.91
2023-04-30T05:50:29.978Z,101547.63
2023-04-30T05:52:57.811Z,101552.47
2023-04-30T05:55:25.634Z,101540.91
2023-04-30T05:57:53.426Z,101543.31
2023-04-30T06:00:21.230Z,101550.06
2023-04-30T06:02:50.698Z,101547.22
2023-04-30T06:05:18.569Z,101555.75
2023-04-30T06:07:46.370Z,101549.50
2023-04-30T06:10:14.116Z,101546.75
2023-04-30T06:12:42.090Z,101546.56
2023-04-30T06:15:10.358Z,101547.09
2023-04-30T06:17:38.220Z,101550.25
2023-04-30T06:20:09.205Z,101549.38
2023-04-30T06:22:37.033Z,101547.50
2023-04-30T06:25:05.303Z,101552.41
2023-04-30T06:27:33.264Z,101547.84
2023-04-30T06:30:01.255Z,101549.47
2023-04-30T06:32:29.175Z,101542.19
2023-04-30T06:34:57.039Z,101547.16
2023-04-30T06:37:26.194Z,101549.56
2023-04-30T06:39:54.152Z,101541.38
2023-04-30T06:42:22.072Z,101550.59
2023-04-30T06:44:49.810Z,101551.50
2023-04-30T06:47:17.731Z,101551.56
2023-04-30T06:49:45.522Z,101548.09
2023-04-30T06:52:13.348Z,101550.44
2023-04-30T06:54:43.866Z,101548.63
2023-04-30T06:57:12.366Z,101541.41
2023-04-30T06:59:40.596Z,101539.25
2023-04-30T07:02:08.393Z,101541.50
2023-04-30T07:04:36.305Z,101537.84
2023-04-30T07:07:04.394Z,101536.84
2023-04-30T07:09:32.382Z,101538.97
2023-04-30T07:12:01.650Z,101531.78
2023-04-30T07:14:29.445Z,101530.72
2023-04-30T07:16:57.323Z,101536.50
2023-04-30T07:19:26.987Z,101538.81
2023-04-30T07:21:55.052Z,101532.47
2023-04-30T07:24:22.862Z,101538.44
2023-04-30T07:26:50.770Z,101534.06
2023-04-30T07:29:19.930Z,101527.84
2023-04-30T07:31:47.808Z,101530.56
2023-04-30T07:34:15.629Z,101529.72
2023-04-30T07:36:43.591Z,101533.72
2023-04-30T07:39:11.821Z,101535.19
2023-04-30T07:41:39.610Z,101529.78
2023-04-30T07:44:07.462Z,101536.56
2023-04-30T07:46:36.963Z,101526.44
2023-04-30T07:49:05.110Z,101543.50
2023-04-30T07:51:34.136Z,101538.28
2023-04-30T07:54:01.817Z,101524.69
2023-04-30T07:56:29.596Z,101521.47
2023-04-30T07:58:57.412Z,101518.25
2023-04-30T08:01:25.534Z,101514.31
2023-04-30T08:03:54.714Z,101510.53
2023-04-30T08:06:22.794Z,101508.19
2023-04-30T08:08:50.718Z,101511.59
2023-04-30T08:11:18.567Z,101514.16
2023-04-30T08:13:46.601Z,101507.53
2023-04-30T08:16:14.409Z,101512.38
2023-04-30T08:18:44.935Z,101517.28
2023-04-30T08:21:14.717Z,101515.91
2023-04-30T08:23:42.619Z,101511.38
2023-04-30T08:26:10.477Z,101512.13
2023-04-30T08:28:38.274Z,101519.22
2023-04-30T08:31:06.431Z,101515.66
2023-04-30T08:33:34.254Z,101506.81
2023-04-30T08:36:02.265Z,101505.03
2023-04-30T08:38:31.418Z,101507.69
2023-04-30T08:41:06.942Z,101501.72
2023-04-30T08:43:36.519Z,101509.94
2023-04-30T08:46:05.211Z,101503.06
2023-04-30T08:48:32.941Z,101508.81
2023-04-30T08:51:02.218Z,101507.38
2023-04-30T08:53:32.552Z,101502.59
2023-04-30T08:56:00.504Z,101509.31
2023-04-30T08:58:28.292Z,101512.84
2023-04-30T09:00:56.113Z,101514.06
2023-04-30T09:03:24.092Z,101509.56
2023-04-30T09:05:52.206Z,101505.97
2023-04-30T09:08:20.804Z,101515.94
2023-04-30T09:10:49.926Z,101518.06
2023-04-30T09:13:17.693Z,101506.19
2023-04-30T09:15:45.955Z,101498.94
2023-04-30T09:18:17.707Z,101502.53
2023-04-30T09:20:56.547Z,101505.97
2023-04-30T09:23:24.997Z,101499.41
2023-04-30T09:25:54.161Z,101500.00
2023-04-30T09:28:24.478Z,101495.06
2023-04-30T09:30:52.893Z,101493.50
2023-04-30T09:33:21.397Z,101490.75
2023-04-30T09:35:49.464Z,101497.06
2023-04-30T09:38:28.071Z,101496.84
2023-04-30T09:40:59.654Z,101489.13
2023-04-30T09:43:27.548Z,101491.28
2023-04-30T09:45:55.458Z,101484.81
2023-04-30T09:48:24.142Z,101487.78
2023-04-30T09:50:53.113Z,101487.06
2023-04-30T09:53:21.052Z,101481.56
2023-04-30T09:55:50.090Z,101477.84
2023-04-30T09:58:20.696Z,101480.44
2023-04-30T10:00:49.656Z,101477.19
2023-04-30T10:03:17.610Z,101471.53
2023-04-30T10:05:48.361Z,101469.78
2023-04-30T10:08:20.610Z,101479.41
2023-04-30T10:10:52.575Z,101473.31
2023-04-30T10:13:22.396Z,101470.53
2023-04-30T10:15:52.903Z,101474.66
2023-04-30T10:18:23.269Z,101469.19
2023-04-30T10:20:52.171Z,101468.28
2023-04-30T10:23:19.732Z,101461.97
2023-04-30T10:25:48.489Z,101458.31
2023-04-30T10:28:16.940Z,101452.56
2023-04-30T10:30:46.162Z,101445.81
2023-04-30T10:33:19.751Z,101444.59
2023-04-30T10:35:52.446Z,101453.50
2023-04-30T10:38:23.973Z,101450.13
2023-04-30T10:40:52.044Z,101449.88
2023-04-30T10:43:22.148Z,101449.84
2023-04-30T10:45:51.500Z,101445.56
2023-04-30T10:48:25.445Z,101435.50
2023-04-30T10:50:56.622Z,101433.13
2023-04-30T10:53:26.325Z,101428.75
2023-04-30T10:55:55.788Z,101431.34
2023-04-30T10:58:32.261Z,101418.72
2023-04-30T11:01:06.104Z,101424.53
2023-04-30T11:03:35.804Z,101430.50
2023-04-30T11:06:09.892Z,101411.16
2023-04-30T11:08:39.115Z,101413.41
2023-04-30T11:11:10.082Z,101400.19
2023-04-30T11:13:42.291Z,101396.66
2023-04-30T11:16:11.627Z,101409.81
2023-04-30T11:18:45.799Z,101411.50
2023-04-30T11:21:14.028Z,101405.25
2023-04-30T11:23:44.131Z,101395.72
2023-04-30T11:26:12.157Z,101406.25
2023-04-30T11:28:39.995Z,101397.44
2023-04-30T11:31:08.074Z,101395.69
2023-04-30T11:33:37.248Z,101395.38
2023-04-30T11:36:05.580Z,101386.25
2023-04-30T11:38:36.153Z,101385.88
2023-04-30T11:41:04.859Z,101368.94
2023-04-30T11:43:33.519Z,101381.06
2023-04-30T11:46:11.664Z,101379.59
2023-04-30T11:48:42.284Z,101382.91
2023-04-30T11:51:17.319Z,101371.41
2023-04-30T11:53:47.456Z,101375.03
2023-04-30T11:56:15.431Z,101370.97
2023-04-30T11:58:43.306Z,101387.41
2023-04-30T12:01:11.112Z,101371.81
2023-04-30T12:03:44.621Z,101373.50
2023-04-30T12:06:13.534Z,101371.59
2023-04-30T12:08:42.339Z,101376.63
2023-04-30T12:11:20.525Z,101361.28
2023-04-30T12:13:51.954Z,101365.06
2023-04-30T12:16:19.900Z,101364.00
2023-04-30T12:18:51.336Z,101364.63
2023-04-30T12:21:21.498Z,101352.84
2023-04-30T12:23:49.054Z,101355.84
2023-04-30T12:26:17.909Z,101350.13
2023-04-30T12:28:48.523Z,101355.72
2023-04-30T12:31:16.492Z,101352.25
2023-04-30T12:33:44.287Z,101352.34
2023-04-30T12:36:14.247Z,101342.13
2023-04-30T12:38:43.897Z,101349.41
2023-04-30T12:41:15.204Z,101339.34
2023-04-30T12:43:43.028Z,101343.88
2023-04-30T12:46:10.800Z,101341.00
2023-04-30T12:48:45.689Z,101340.28
2023-04-30T12:51:21.100Z,101334.53
2023-04-30T12:53:48.929Z,101335.84
2023-04-30T12:56:18.034Z,101342.94
2023-04-30T12:58:49.773Z,101342.72
2023-04-30T13:01:19.318Z,101340.47
2023-04-30T13:03:47.478Z,101337.63
2023-04-30T13:06:16.878Z,101336.81
2023-04-30T13:08:56.973Z,101325.56
2023-04-30T13:11:27.231Z,101324.72
2023-04-30T13:13:56.292Z,101336.06
2023-04-30T13:16:25.984Z,101325.66
2023-04-30T13:18:55.915Z,101325.09
2023-04-30T13:21:25.834Z,101315.50
2023-04-30T13:23:54.833Z,101310.91
2023-04-30T13:26:24.641Z,101315.00
2023-04-30T13:28:52.468Z,101312.06
2023-04-30T13:31:20.558Z,101305.25
2023-04-30T13:33:48.528Z,101299.50
2023-04-30T13:36:16.602Z,101289.25
2023-04-30T13:38:47.040Z,101301.03
2023-04-30T13:41:14.805Z,101285.16
2023-04-30T13:43:43.759Z,101287.25
2023-04-30T13:46:14.328Z,101280.53
2023-04-30T13:48:42.701Z,101295.94
2023-04-30T13:51:10.490Z,101289.00
2023-04-30T13:53:38.286Z,101288.47
2023-04-30T13:56:08.046Z,101285.47
2023-04-30T13:58:35.902Z,101269.75
2023-04-30T14:01:03.773Z,101276.16
2023-04-30T14:03:31.779Z,101274.41
2023-04-30T14:05:59.720Z,101285.63
2023-04-30T14:08:27.683Z,101274.28
2023-04-30T14:10:56.399Z,101268.97
2023-04-30T14:13:25.775Z,101268.44
2023-04-30T14:15:54.719Z,101267.31
2023-04-30T14:18:22.845Z,101270.91
2023-04-30T14:20:51.046Z,101272.34
2023-04-30T14:23:18.922Z,101265.63
2023-04-30T14:25:46.692Z,101269.69
2023-04-30T14:28:14.435Z,101266.84
2023-04-30T14:30:43.684Z,101261.78
2023-04-30T14:33:12.980Z,101254.66
2023-04-30T14:35:41.576Z,101260.44
2023-04-30T14:38:09.566Z,101253.00
2023-04-30T14:40:37.445Z,101262.88
2023-04-30T14:43:05.246Z,101244.56
2023-04-30T14:45:34.284Z,101245.06
2023-04-30T14:48:05.724Z,101238.81
2023-04-30T14:50:33.798Z,101247.63
2023-04-30T14:53:01.731Z,101241.47
2023-04-30T14:55:29.633Z,101235.75
2023-04-30T14:57:57.520Z,101233.00
2023-04-30T15:00:25.412Z,101232.84
2023-04-30T15:02:53.341Z,101228.50
2023-04-30T15:05:22.572Z,101225.97
2023-04-30T15:07:50.384Z,101226.69
2023-04-30T15:10:18.586Z,101229.81
2023-04-30T15:12:46.403Z,101233.53
2023-04-30T15:15:14.244Z,101238.00
2023-04-30T15:17:42.177Z,101227.38
2023-04-30T15:20:10.725Z,101222.41
2023-04-30T15:22:39.913Z,101222.31
2023-04-30T15:25:08.842Z,101220.97
2023-04-30T15:27:36.889Z,101219.41
2023-04-30T15:30:05.376Z,101219.00
2023-04-30T15:32:33.142Z,101215.72
2023-04-30T15:35:00.982Z,101220.56
2023-04-30T15:37:28.826Z,101203.69
2023-04-30T15:39:57.956Z,101203.56
2023-04-30T15:42:25.748Z,101190.56
2023-04-30T15:44:53.585Z,101191.25
2023-04-30T15:47:23.755Z,101200.94
2023-04-30T15:49:51.819Z,101189.03
2023-04-30T15:52:20.467Z,101187.88
2023-04-30T15:54:48.368Z,101186.16
2023-04-30T15:57:17.655Z,101196.69
2023-04-30T15:59:45.525Z,101191.22
2023-04-30T16:02:13.380Z,101178.81
2023-04-30T16:04:41.468Z,101173.09
2023-04-30T16:07:09.230Z,101172.56
2023-04-30T16:09:37.079Z,101170.25
2023-04-30T16:12:05.206Z,101161.34
2023-04-30T16:14:34.355Z,101159.22
2023-04-30T16:17:02.693Z,101161.31
2023-04-30T16:19:30.591Z,101151.00
2023-04-30T16:21:58.563Z,101158.38
2023-04-30T16:24:26.330Z,101160.25
2023-04-30T16:26:54.135Z,101152.44
2023-04-30T16:29:21.966Z,101144.88
2023-04-30T16:31:52.139Z,101155.19
2023-04-30T16:34:20.084Z,101150.44
2023-04-30T16:36:47.859Z,101154.66
2023-04-30T16:39:17.173Z,101144.19
2023-04-30T16:41:45.116Z,101150.59
2023-04-30T16:44:13.274Z,101146.44
2023-04-30T16:46:41.075Z,101145.16
2023-04-30T16:49:10.211Z,101141.78
2023-04-30T16:51:38.015Z,101152.13
2023-04-30T16:54:05.815Z,101147.66
2023-04-30T16:56:33.647Z,101146.72
2023-04-30T16:59:01.471Z,101146.81
2023-04-30T17:01:29.312Z,101145.03
2023-04-30T17:03:57.233Z,101142.59
2023-04-30T17:06:26.568Z,101146.91
2023-04-30T17:08:54.959Z,101155.09
2023-04-30T17:11:24.294Z,101127.84
2023-04-30T17:13:53.544Z,101140.09
2023-04-30T17:16:22.136Z,101146.03
2023-04-30T17:18:50.115Z,101138.44
2023-04-30T17:21:18.000Z,101141.53
2023-04-30T17:23:47.166Z,101140.03
2023-04-30T17:26:14.952Z,101132.53
2023-04-30T17:28:42.751Z,101125.81
2023-04-30T17:31:10.560Z,101134.81
2023-04-30T17:33:38.463Z,101132.63
2023-04-30T17:36:07.572Z,101126.75
2023-04-30T17:38:35.187Z,101125.06
2023-04-30T17:41:05.026Z,101126.69
2023-04-30T17:43:32.837Z,101117.94
2023-04-30T17:46:00.674Z,101123.13
2023-04-30T17:48:28.477Z,101123.84
2023-04-30T17:50:56.293Z,101123.16
2023-04-30T17:53:24.080Z,101121.47
2023-04-30T17:55:52.439Z,101122.59
2023-04-30T17:58:21.774Z,101117.94
2023-04-30T18:00:49.492Z,101113.72
2023-04-30T18:03:17.360Z,101123.63
2023-04-30T18:05:45.222Z,101114.19
2023-04-30T18:08:13.088Z,101127.91
2023-04-30T18:10:40.860Z,101106.28
2023-04-30T18:13:08.636Z,101109.84
2023-04-30T18:15:37.792Z,101111.91
2023-04-30T18:18:05.656Z,101112.34
2023-04-30T18:20:33.625Z,101112.97
2023-04-30T18:23:01.407Z,101111.47
2023-04-30T18:25:29.264Z,101121.53
2023-04-30T18:27:57.948Z,101116.75
2023-04-30T18:30:25.747Z,101117.97
2023-04-30T18:33:04.160Z,101121.09
2023-04-30T18:35:32.321Z,101118.06
2023-04-30T18:38:01.956Z,101118.56
2023-04-30T18:40:30.035Z,101120.50
2023-04-30T18:42:57.891Z,101121.88
2023-04-30T18:45:25.957Z,101123.31
2023-04-30T18:47:54.236Z,101121.91
2023-04-30T18:50:23.377Z,101117.94
2023-04-30T18:52:51.152Z,101127.88
2023-04-30T18:55:19.139Z,101117.59
2023-04-30T18:57:47.197Z,101119.78
2023-04-30T19:00:16.514Z,101110.59
2023-04-30T19:02:44.466Z,101122.28
2023-04-30T19:05:12.430Z,101124.38
2023-04-30T19:07:41.729Z,101125.66
2023-04-30T19:10:10.149Z,101118.94
2023-04-30T19:12:37.979Z,101124.47
2023-04-30T19:15:08.041Z,101121.41
2023-04-30T19:17:36.431Z,101126.97
2023-04-30T19:20:04.732Z,101125.59
2023-04-30T19:22:32.558Z,101132.00
2023-04-30T19:25:04.528Z,101125.25
2023-04-30T19:27:33.992Z,101131.63
2023-04-30T19:30:01.788Z,101130.25
2023-04-30T19:32:29.592Z,101128.72
2023-04-30T19:34:58.929Z,101133.22
2023-04-30T19:37:26.888Z,101131.84
2023-04-30T19:39:54.924Z,101131.31
2023-04-30T19:42:24.348Z,101129.78
2023-04-30T19:44:52.961Z,101133.47
2023-04-30T19:47:20.839Z,101140.69
2023-04-30T19:49:48.662Z,101133.09
2023-04-30T19:52:16.472Z,101138.59
2023-04-30T19:54:48.565Z,101131.13
2023-04-30T19:57:16.522Z,101129.63
2023-04-30T19:59:47.263Z,101127.22
2023-04-30T20:02:15.369Z,101129.94
2023-04-30T20:04:43.477Z,101127.56
2023-04-30T20:07:11.314Z,101118.19
2023-04-30T20:09:39.100Z,101118.41
2023-04-30T20:12:07.082Z,101114.97
2023-04-30T20:14:34.896Z,101119.41
2023-04-30T20:17:04.104Z,101119.56
2023-04-30T20:19:32.172Z,101119.31
2023-04-30T20:22:00.003Z,101124.56
2023-04-30T20:24:27.911Z,101121.13
2023-04-30T20:26:56.050Z,101123.78
2023-04-30T20:29:24.125Z,101125.63
2023-04-30T20:31:52.375Z,101124.84
2023-04-30T20:34:22.143Z,101107.81
2023-04-30T20:36:49.950Z,101124.44
2023-04-30T20:39:17.773Z,101114.16
2023-04-30T20:41:47.998Z,101116.81
2023-04-30T20:44:15.784Z,101117.88
2023-04-30T20:46:43.761Z,101110.19
2023-04-30T20:49:12.364Z,101117.19
2023-04-30T20:51:41.655Z,101112.94
2023-04-30T20:54:09.745Z,101111.25
2023-04-30T20:56:37.551Z,101112.16
2023-04-30T20:59:05.897Z,101114.03
2023-04-30T21:01:33.795Z,101112.34
2023-04-30T21:04:02.398Z,101095.78
2023-04-30T21:06:30.312Z,101098.44
2023-04-30T21:08:59.454Z,101100.28
2023-04-30T21:11:28.194Z,101103.38
2023-04-30T21:13:57.087Z,101101.28
2023-04-30T21:16:24.933Z,101096.84
2023-04-30T21:18:52.817Z,101103.88
2023-04-30T21:21:20.677Z,101099.50
2023-04-30T21:23:48.562Z,101099.66
2023-04-30T21:26:17.967Z,101089.94
2023-04-30T21:28:45.929Z,101094.25
2023-04-30T21:31:13.868Z,101088.13
2023-04-30T21:33:41.838Z,101093.47
2023-04-30T21:36:09.648Z,101086.28
2023-04-30T21:38:37.952Z,101082.59
2023-04-30T21:41:05.816Z,101085.56
2023-04-30T21:43:35.068Z,101081.25
2023-04-30T21:46:03.235Z,101078.38
2023-04-30T21:48:31.089Z,101078.25
2023-04-30T21:50:58.933Z,101081.97
2023-04-30T21:53:27.006Z,101073.31
2023-04-30T21:55:54.821Z,101071.69
2023-04-30T21:58:22.612Z,101072.81
2023-04-30T22:00:51.711Z,101069.44
2023-04-30T22:03:19.572Z,101060.84
2023-04-30T22:05:47.452Z,101069.56
2023-04-30T22:08:15.244Z,101058.50
2023-04-30T22:10:43.222Z,101056.97
2023-04-30T22:13:10.989Z,101053.59
2023-04-30T22:15:47.732Z,101049.50
2023-04-30T22:18:17.469Z,101043.69
2023-04-30T22:20:45.039Z,101049.28
2023-04-30T22:23:12.802Z,101032.63
2023-04-30T22:25:40.572Z,101042.34
2023-04-30T22:28:10.044Z,101032.28
2023-04-30T22:30:38.342Z,101035.63
2023-04-30T22:33:06.332Z,101034.22
2023-04-30T22:35:38.143Z,101029.72
2023-04-30T22:38:05.973Z,101031.63
2023-04-30T22:40:34.138Z,101030.78
2023-04-30T22:43:02.317Z,101023.88
2023-04-30T22:45:31.550Z,101026.59
2023-04-30T22:48:01.583Z,101027.91
2023-04-30T22:50:30.078Z,101028.66
2023-04-30T22:52:59.412Z,101020.97
2023-04-30T22:55:27.669Z,101029.75
2023-04-30T22:57:55.691Z,101029.81
2023-04-30T23:00:24.119Z,101022.06
2023-04-30T23:02:51.929Z,101020.47
2023-04-30T23:05:20.136Z,101017.06
2023-04-30T23:07:48.759Z,101017.00
2023-04-30T23:10:18.436Z,101021.50
2023-04-30T23:12:46.151Z,101018.81
2023-04-30T23:15:14.072Z,101016.28
2023-04-30T23:17:41.882Z,101014.59
2023-04-30T23:20:10.867Z,101016.28
2023-04-30T23:22:38.841Z,101011.00
2023-04-30T23:25:07.394Z,101010.22
2023-04-30T23:27:36.681Z,101009.41
2023-04-30T23:30:04.581Z,101005.47
2023-04-30T23:32:33.394Z,101004.41
2023-04-30T23:35:01.259Z,101007.06
2023-04-30T23:37:29.033Z,100999.38
2023-04-30T23:39:57.103Z,101003.75
2023-04-30T23:42:25.220Z,100995.97
2023-04-30T23:44:54.343Z,100992.75
2023-04-30T23:47:22.096Z,100982.63
2023-04-30T23:49:49.885Z,100980.88
2023-04-30T23:52:17.599Z,100974.25
2023-04-30T23:54:45.387Z,100975.03
2023-04-30T23:57:13.234Z,100970.91
2023-04-30T23:59:41.496Z,100971.16
